Time;durP1;ratioP1;P1;durP2;ratioP2;P2;SDS_P1;SDS_P2;PMS_P1;PMS_P2;Temp;Humidity;BMP_temperature;BMP_pressure;BME280_temperature;BME280_humidity;BME280_pressure;Samples;Min_cycle;Max_cycle;Signal;HPM_P1;HPM_P2
2022/10/29 00:00:37;;;;;;;13.93;4.43;;;14.00;99.90;;;;;;6180785;28;20051;-81
2022/10/29 00:03:39;;;;;;;14.23;4.63;;;14.00;99.90;;;;;;6179941;28;20411;-81
2022/10/29 00:06:42;;;;;;;18.95;3.90;;;14.10;99.90;;;;;;6180880;28;20408;-81
2022/10/29 00:09:43;;;;;;;11.98;4.28;;;14.10;99.90;;;;;;6180742;28;20043;-81
2022/10/29 00:12:45;;;;;;;18.25;4.22;;;14.20;99.90;;;;;;6180681;28;20120;-80
2022/10/29 00:15:47;;;;;;;18.58;4.53;;;14.20;99.90;;;;;;6181547;28;20500;-81
2022/10/29 00:18:49;;;;;;;10.70;3.63;;;14.20;99.90;;;;;;6180908;28;20054;-81
2022/10/29 00:21:52;;;;;;;13.00;3.78;;;14.10;99.90;;;;;;6179886;28;20066;-81
2022/10/29 00:24:54;;;;;;;27.30;6.43;;;14.20;99.90;;;;;;6179678;28;20050;-81
2022/10/29 00:27:56;;;;;;;33.65;4.97;;;14.10;99.90;;;;;;6180398;28;20527;-81
2022/10/29 00:31:01;;;;;;;10.30;3.95;;;14.20;99.90;;;;;;6179361;28;20062;-80
2022/10/29 00:34:03;;;;;;;19.38;4.25;;;14.20;99.90;;;;;;6196180;28;20077;-80
2022/10/29 00:37:06;;;;;;;10.38;3.90;;;14.10;99.90;;;;;;6196951;28;20061;-80
2022/10/29 00:40:10;;;;;;;12.63;3.75;;;14.10;99.90;;;;;;6196285;28;20051;-80
2022/10/29 00:43:12;;;;;;;14.88;5.32;;;14.10;99.90;;;;;;6183586;28;20046;-81
2022/10/29 00:46:21;;;;;;;12.50;4.20;;;14.10;99.90;;;;;;6179975;28;20086;-81
2022/10/29 00:49:23;;;;;;;;;;;14.00;99.90;;;;;;6179975;28;20057;-81
2022/10/29 00:52:29;;;;;;;11.20;3.70;;;14.10;99.90;;;;;;6179015;28;19992;-81
2022/10/29 00:55:31;;;;;;;11.65;3.67;;;14.10;99.90;;;;;;6179715;28;20485;-81
2022/10/29 00:58:34;;;;;;;10.57;3.15;;;14.10;99.90;;;;;;6179598;28;20051;-81
2022/10/29 01:01:36;;;;;;;26.23;4.72;;;14.10;99.90;;;;;;6179313;28;20047;-81
2022/10/29 01:04:39;;;;;;;24.65;8.85;;;14.10;99.90;;;;;;6179461;28;20050;-81
2022/10/29 01:07:42;;;;;;;13.30;3.72;;;14.20;99.90;;;;;;6178822;28;20059;-80
2022/10/29 01:10:55;;;;;;;11.77;3.75;;;14.20;99.90;;;;;;6180311;28;20062;-81
2022/10/29 01:14:06;;;;;;;13.05;3.75;;;14.10;99.90;;;;;;6179132;28;20053;-80
2022/10/29 01:17:18;;;;;;;10.65;3.83;;;14.10;99.90;;;;;;6178802;28;20421;-81
2022/10/29 01:20:36;;;;;;;22.38;4.72;;;14.00;99.90;;;;;;6178994;28;20053;-81
2022/10/29 01:24:09;;;;;;;11.57;3.75;;;13.90;99.90;;;;;;6179438;28;20058;-81
2022/10/29 01:27:36;;;;;;;19.30;3.42;;;13.90;99.90;;;;;;6178955;28;20050;-81
2022/10/29 01:30:50;;;;;;;17.75;4.57;;;14.00;99.90;;;;;;6185981;28;20051;-81
2022/10/29 01:33:57;;;;;;;8.15;3.15;;;14.00;99.90;;;;;;6185408;28;20050;-80
2022/10/29 01:37:03;;;;;;;14.30;3.73;;;14.00;99.90;;;;;;6182976;28;20054;-80
2022/10/29 01:40:10;;;;;;;13.73;3.50;;;14.00;99.90;;;;;;6182199;28;20043;-80
2022/10/29 01:43:18;;;;;;;14.73;3.83;;;14.00;99.90;;;;;;6183457;28;20054;-80
2022/10/29 01:46:23;;;;;;;;;;;14.00;99.90;;;;;;6208443;23;20048;-84
2022/10/29 01:49:29;;;;;;;12.23;3.53;;;14.00;99.90;;;;;;6198784;28;19921;-83
2022/10/29 01:52:34;;;;;;;19.25;4.40;;;14.00;99.90;;;;;;6199358;28;20050;-83
2022/10/29 01:55:36;;;;;;;12.00;3.95;;;13.90;99.90;;;;;;6199702;28;20049;-85
2022/10/29 01:58:40;;;;;;;22.88;3.42;;;13.80;99.90;;;;;;6198971;28;20050;-84
2022/10/29 02:01:56;;;;;;;23.67;5.82;;;13.80;99.90;;;;;;6198973;28;20126;-83
2022/10/29 02:05:08;;;;;;;13.23;3.33;;;13.70;99.90;;;;;;6199471;28;20439;-83
2022/10/29 02:08:25;;;;;;;11.52;4.90;;;13.70;99.90;;;;;;6198483;28;20051;-84
2022/10/29 02:11:33;;;;;;;8.80;3.80;;;13.70;99.90;;;;;;6199342;28;20055;-84
2022/10/29 02:14:40;;;;;;;18.30;5.07;;;13.70;99.90;;;;;;6198823;28;20046;-84
2022/10/29 02:17:44;;;;;;;17.95;3.15;;;13.70;99.90;;;;;;6198195;28;20061;-83
2022/10/29 02:20:46;;;;;;;9.30;2.75;;;13.70;99.90;;;;;;6198538;28;20046;-84
2022/10/29 02:23:48;;;;;;;14.57;3.92;;;13.60;99.90;;;;;;6198505;28;20050;-84
2022/10/29 02:26:49;;;;;;;13.65;4.07;;;13.60;99.90;;;;;;6199452;28;20054;-84
2022/10/29 02:29:51;;;;;;;14.13;3.13;;;13.60;99.90;;;;;;6198159;28;20043;-84
2022/10/29 02:32:54;;;;;;;17.92;3.83;;;13.60;99.90;;;;;;6198458;28;20038;-84
2022/10/29 02:35:56;;;;;;;19.10;4.57;;;13.50;99.90;;;;;;6198160;28;20053;-84
2022/10/29 02:38:57;;;;;;;16.25;3.33;;;13.40;99.90;;;;;;6198689;28;20061;-84
2022/10/29 02:41:59;;;;;;;13.65;3.53;;;13.40;99.90;;;;;;6198640;28;20057;-84
2022/10/29 02:45:01;;;;;;;8.30;3.65;;;13.40;99.90;;;;;;6198763;28;20046;-84
2022/10/29 02:48:04;;;;;;;13.73;3.65;;;13.40;99.90;;;;;;6201370;28;20046;-85
2022/10/29 02:51:06;;;;;;;19.27;4.13;;;13.30;99.90;;;;;;6222711;28;20091;-84
2022/10/29 02:54:08;;;;;;;10.52;3.88;;;13.30;99.90;;;;;;6200116;28;20046;-84
2022/10/29 02:57:09;;;;;;;16.77;4.22;;;13.30;99.90;;;;;;6197865;28;20049;-84
2022/10/29 03:00:12;;;;;;;15.02;3.25;;;13.30;99.90;;;;;;6197684;28;20046;-84
2022/10/29 03:03:16;;;;;;;5.97;2.85;;;13.30;99.90;;;;;;6199065;28;20051;-84
2022/10/29 03:06:19;;;;;;;8.57;3.30;;;13.20;99.90;;;;;;6198083;28;20038;-84
2022/10/29 03:09:21;;;;;;;11.10;3.00;;;13.20;99.90;;;;;;6197692;28;20042;-84
2022/10/29 03:12:23;;;;;;;16.80;3.83;;;13.20;99.90;;;;;;6197632;28;20046;-84
2022/10/29 03:15:25;;;;;;;10.15;3.25;;;13.10;99.90;;;;;;6198290;28;20066;-85
2022/10/29 03:18:28;;;;;;;19.40;3.70;;;13.10;99.90;;;;;;6202437;28;20050;-83
2022/10/29 03:21:30;;;;;;;17.65;4.90;;;13.10;99.90;;;;;;6203319;28;20041;-84
2022/10/29 03:24:31;;;;;;;11.35;4.45;;;13.00;99.90;;;;;;6202803;28;20038;-84
2022/10/29 03:27:33;;;;;;;9.43;3.47;;;13.00;99.90;;;;;;6202403;28;20531;-84
2022/10/29 03:30:35;;;;;;;7.95;3.30;;;12.90;99.90;;;;;;6203055;28;20396;-83
2022/10/29 03:33:38;;;;;;;20.52;7.07;;;13.00;99.90;;;;;;6202785;28;20691;-84
2022/10/29 03:36:39;;;;;;;12.13;3.25;;;12.90;99.90;;;;;;6202679;28;20054;-84
2022/10/29 03:39:41;;;;;;;16.13;3.67;;;12.90;99.90;;;;;;6203248;28;20061;-84
2022/10/29 03:42:43;;;;;;;10.68;3.50;;;12.90;99.90;;;;;;6202868;28;20053;-84
2022/10/29 03:45:49;;;;;;;11.10;4.07;;;12.90;99.90;;;;;;6202287;28;20057;-84
2022/10/29 03:48:52;;;;;;;9.77;3.83;;;12.90;99.90;;;;;;6201627;28;20047;-84
2022/10/29 03:51:54;;;;;;;9.93;2.95;;;12.90;99.90;;;;;;6204035;28;20042;-83
2022/10/29 03:54:55;;;;;;;26.08;3.88;;;13.00;99.90;;;;;;6202787;28;20042;-84
2022/10/29 03:57:57;;;;;;;10.27;3.88;;;13.00;99.90;;;;;;6204136;28;20034;-84
2022/10/29 04:01:00;;;;;;;12.52;3.08;;;13.00;99.90;;;;;;6202622;28;20069;-84
2022/10/29 04:04:03;;;;;;;15.15;3.78;;;13.00;99.90;;;;;;6203429;28;20046;-82
2022/10/29 04:07:05;;;;;;;9.88;3.35;;;12.90;99.90;;;;;;6203162;28;20061;-83
2022/10/29 04:10:07;;;;;;;9.40;3.17;;;12.90;99.90;;;;;;6202482;28;20058;-84
2022/10/29 04:13:09;;;;;;;9.02;2.88;;;12.80;99.90;;;;;;6202417;28;20046;-84
2022/10/29 04:16:11;;;;;;;18.10;3.75;;;12.80;99.90;;;;;;6203018;28;20046;-83
2022/10/29 04:19:14;;;;;;;21.60;4.05;;;12.70;99.90;;;;;;6202588;28;20050;-84
2022/10/29 04:22:16;;;;;;;9.60;3.35;;;12.60;99.90;;;;;;6202472;28;20133;-84
2022/10/29 04:25:17;;;;;;;8.75;2.70;;;12.50;99.90;;;;;;6202869;28;20058;-83
2022/10/29 04:28:19;;;;;;;10.00;4.00;;;12.50;99.90;;;;;;6201159;28;20522;-82
2022/10/29 04:31:21;;;;;;;16.17;3.88;;;12.50;99.90;;;;;;6202519;28;20046;-83
2022/10/29 04:34:24;;;;;;;12.98;3.53;;;12.50;99.90;;;;;;6203252;28;20061;-84
2022/10/29 04:37:28;;;;;;;9.18;2.92;;;12.40;99.90;;;;;;6201520;28;20046;-83
2022/10/29 04:40:30;;;;;;;9.25;2.67;;;12.50;99.90;;;;;;6201373;28;20411;-83
2022/10/29 04:43:31;;;;;;;16.10;3.78;;;12.40;99.90;;;;;;6201273;28;20686;-84
2022/10/29 04:46:33;;;;;;;10.00;3.95;;;12.40;99.90;;;;;;6201234;28;20054;-84
2022/10/29 04:49:36;;;;;;;23.02;4.15;;;12.40;99.90;;;;;;6200382;28;20061;-83
2022/10/29 04:52:38;;;;;;;9.45;4.13;;;12.30;99.90;;;;;;6201473;28;20034;-84
2022/10/29 04:55:40;;;;;;;10.35;3.58;;;12.30;99.90;;;;;;6200783;28;20061;-84
2022/10/29 04:58:41;;;;;;;16.67;4.53;;;12.30;99.90;;;;;;6200565;28;20054;-84
2022/10/29 05:01:43;;;;;;;13.68;3.13;;;12.30;99.90;;;;;;6200592;28;20051;-83
2022/10/29 05:04:46;;;;;;;20.23;4.85;;;12.20;99.90;;;;;;6200620;28;20054;-83
2022/10/29 05:07:48;;;;;;;11.27;4.63;;;12.20;99.90;;;;;;6200266;28;20076;-83
2022/10/29 05:10:49;;;;;;;8.82;3.40;;;12.20;99.90;;;;;;6201107;28;20030;-84
2022/10/29 05:13:51;;;;;;;7.47;2.83;;;12.20;99.90;;;;;;6200033;28;20500;-84
2022/10/29 05:16:53;;;;;;;15.60;3.22;;;12.20;99.90;;;;;;6200493;28;20143;-84
2022/10/29 05:19:56;;;;;;;18.67;3.30;;;12.10;99.90;;;;;;6200205;28;20050;-83
2022/10/29 05:23:01;;;;;;;18.88;3.90;;;12.10;99.90;;;;;;6201011;28;20052;-83
2022/10/29 05:26:03;;;;;;;9.32;4.20;;;12.10;99.90;;;;;;6200860;28;20640;-83
2022/10/29 05:29:05;;;;;;;16.15;3.72;;;12.10;99.90;;;;;;6200656;28;20047;-84
2022/10/29 05:32:06;;;;;;;13.50;4.35;;;12.10;99.90;;;;;;6201975;28;20504;-83
2022/10/29 05:35:10;;;;;;;19.30;3.92;;;12.10;99.90;;;;;;6201741;28;20065;-83
2022/10/29 05:38:13;;;;;;;18.58;5.10;;;12.20;99.90;;;;;;6200143;28;20049;-83
2022/10/29 05:41:15;;;;;;;17.75;3.60;;;12.10;99.90;;;;;;6199693;28;20061;-83
2022/10/29 05:44:16;;;;;;;11.50;3.30;;;12.10;99.90;;;;;;6200670;28;20053;-82
2022/10/29 05:47:18;;;;;;;15.35;4.55;;;12.10;99.90;;;;;;6200880;28;20566;-82
2022/10/29 05:50:21;;;;;;;13.02;3.45;;;12.10;99.90;;;;;;6200182;28;20507;-83
2022/10/29 05:53:23;;;;;;;19.27;3.03;;;12.00;99.90;;;;;;6199604;28;20492;-83
2022/10/29 05:56:24;;;;;;;15.07;4.07;;;12.00;99.90;;;;;;6200886;28;20444;-84
2022/10/29 05:59:26;;;;;;;10.43;3.40;;;12.00;99.90;;;;;;6206544;28;20053;-84
2022/10/29 06:02:28;;;;;;;9.80;3.83;;;12.00;99.90;;;;;;6203497;28;20050;-85
2022/10/29 06:05:31;;;;;;;10.25;3.67;;;12.00;99.90;;;;;;6200011;28;20049;-85
2022/10/29 06:08:32;;;;;;;10.23;4.03;;;12.00;99.90;;;;;;6198728;28;20076;-85
2022/10/29 06:11:34;;;;;;;11.70;3.20;;;11.90;99.90;;;;;;6199085;28;20054;-85
2022/10/29 06:14:36;;;;;;;18.40;4.22;;;11.90;99.90;;;;;;6199368;28;20046;-85
2022/10/29 06:17:40;;;;;;;16.60;3.38;;;11.90;99.90;;;;;;6198806;28;20053;-84
2022/10/29 06:20:43;;;;;;;17.40;3.53;;;11.80;99.90;;;;;;6199243;28;20093;-85
2022/10/29 06:23:45;;;;;;;10.38;2.97;;;11.80;99.90;;;;;;6200217;28;20050;-85
2022/10/29 06:26:47;;;;;;;10.73;2.53;;;11.70;99.90;;;;;;6198836;28;20411;-86
2022/10/29 06:29:49;;;;;;;12.55;3.25;;;11.80;99.90;;;;;;6198831;28;20054;-85
2022/10/29 06:32:50;;;;;;;12.32;3.35;;;11.80;99.90;;;;;;6198425;28;20415;-85
2022/10/29 06:35:58;;;;;;;12.80;2.38;;;11.90;99.90;;;;;;6199504;28;20424;-85
2022/10/29 06:39:00;;;;;;;13.00;3.35;;;11.90;99.90;;;;;;6199039;28;20065;-84
2022/10/29 06:42:01;;;;;;;13.07;2.58;;;12.10;99.90;;;;;;6198451;28;20050;-86
2022/10/29 06:45:03;;;;;;;10.07;2.45;;;12.20;99.90;;;;;;6198597;28;20046;-86
2022/10/29 06:48:06;;;;;;;16.95;3.50;;;12.30;99.90;;;;;;6197733;28;20495;-85
2022/10/29 06:51:09;;;;;;;14.27;3.50;;;12.40;99.90;;;;;;6201917;28;20053;-85
2022/10/29 06:54:11;;;;;;;9.52;2.85;;;12.50;99.90;;;;;;6207615;28;20507;-85
2022/10/29 06:57:12;;;;;;;9.43;2.90;;;12.70;99.90;;;;;;6210676;28;20050;-84
2022/10/29 07:00:14;;;;;;;8.80;3.97;;;12.90;99.90;;;;;;6206680;28;20038;-86
2022/10/29 07:03:18;;;;;;;8.60;3.55;;;13.00;99.90;;;;;;6206925;28;20061;-85
2022/10/29 07:06:21;;;;;;;11.80;3.13;;;13.20;99.90;;;;;;6209437;28;20057;-86
2022/10/29 07:09:23;;;;;;;11.60;3.17;;;13.40;99.90;;;;;;6206427;28;20069;-85
2022/10/29 07:12:25;;;;;;;5.47;2.70;;;13.60;99.90;;;;;;6207353;28;20397;-85
2022/10/29 07:15:27;;;;;;;13.88;3.72;;;13.80;99.90;;;;;;6207147;28;20404;-84
2022/10/29 07:18:31;;;;;;;10.38;2.97;;;14.00;99.90;;;;;;6209613;28;20050;-86
2022/10/29 07:21:34;;;;;;;12.38;3.92;;;14.20;99.90;;;;;;6206704;28;20133;-85
2022/10/29 07:24:36;;;;;;;7.03;2.92;;;14.40;99.90;;;;;;6206056;28;20047;-85
2022/10/29 07:27:37;;;;;;;9.48;2.92;;;14.50;99.90;;;;;;6205957;28;20046;-85
2022/10/29 07:30:39;;;;;;;6.05;2.38;;;14.70;99.90;;;;;;6206937;28;20492;-85
2022/10/29 07:33:41;;;;;;;12.82;2.38;;;14.90;99.90;;;;;;6206695;28;20047;-84
2022/10/29 07:36:44;;;;;;;9.35;2.72;;;15.00;99.90;;;;;;6206107;28;20057;-84
2022/10/29 07:39:46;;;;;;;8.93;2.97;;;15.20;99.90;;;;;;6205911;28;20061;-85
2022/10/29 07:42:52;;;;;;;9.35;3.70;;;15.30;99.90;;;;;;6207172;28;20046;-84
2022/10/29 07:45:53;;;;;;;8.93;2.70;;;15.50;99.90;;;;;;6206802;28;20062;-84
2022/10/29 07:48:55;;;;;;;8.32;3.55;;;15.70;99.90;;;;;;6186192;28;20519;-82
2022/10/29 07:51:58;;;;;;;9.93;3.03;;;16.00;99.90;;;;;;6209506;28;20045;-83
2022/10/29 07:55:01;;;;;;;10.38;2.55;;;16.30;99.90;;;;;;6224788;28;20050;-84
2022/10/29 07:58:05;;;;;;;15.07;3.90;;;16.70;99.90;;;;;;6210961;28;20503;-83
2022/10/29 08:01:06;;;;;;;7.78;2.60;;;17.30;99.90;;;;;;6209877;28;20053;-82
2022/10/29 08:04:08;;;;;;;12.63;2.67;;;17.80;99.90;;;;;;6206123;28;20042;-84
2022/10/29 08:07:11;;;;;;;7.07;2.67;;;18.40;99.90;;;;;;6206583;28;20054;-83
2022/10/29 08:10:13;;;;;;;11.63;2.58;;;18.90;99.90;;;;;;6206260;28;20053;-84
2022/10/29 08:13:14;;;;;;;8.07;2.42;;;19.50;99.90;;;;;;6206788;28;20415;-84
2022/10/29 08:16:16;;;;;;;3.83;2.30;;;20.10;99.90;;;;;;6206850;28;20134;-85
2022/10/29 08:19:18;;;;;;;12.55;2.60;;;20.50;99.90;;;;;;6215009;28;20050;-84
2022/10/29 08:22:21;;;;;;;16.25;2.63;;;20.90;99.80;;;;;;6229549;28;20054;-84
2022/10/29 08:25:24;;;;;;;13.30;3.55;;;21.20;99.30;;;;;;6206719;28;20054;-84
2022/10/29 08:28:26;;;;;;;11.27;2.40;;;21.40;98.80;;;;;;6207972;28;20043;-84
2022/10/29 08:31:28;;;;;;;14.43;5.35;;;21.60;98.30;;;;;;6207362;28;20051;-83
2022/10/29 08:34:29;;;;;;;8.35;2.03;;;21.80;98.10;;;;;;6206950;28;20050;-84
2022/10/29 08:37:32;;;;;;;3.33;1.60;;;22.20;97.50;;;;;;6207046;28;20428;-84
2022/10/29 08:40:47;;;;;;;13.10;2.65;;;22.40;96.70;;;;;;6206878;28;20046;-84
2022/10/29 08:44:18;;;;;;;13.38;3.13;;;22.40;96.10;;;;;;6205707;28;20046;-84
2022/10/29 08:47:22;;;;;;;8.38;3.10;;;22.30;95.80;;;;;;6205927;28;20409;-83
2022/10/29 08:50:29;;;;;;;8.95;1.98;;;22.30;95.60;;;;;;6213445;28;20041;-85
2022/10/29 08:53:36;;;;;;;11.18;2.65;;;22.40;95.30;;;;;;6222048;28;20397;-83
2022/10/29 08:56:41;;;;;;;14.32;2.65;;;22.40;95.10;;;;;;6228709;28;20042;-84
2022/10/29 08:59:57;;;;;;;14.35;2.47;;;22.70;94.90;;;;;;6227017;28;20049;-84
2022/10/29 09:03:00;;;;;;;7.75;2.42;;;23.10;94.40;;;;;;6208379;28;20134;-84
2022/10/29 09:06:09;;;;;;;15.32;3.80;;;23.50;93.70;;;;;;6179716;28;20050;-84
2022/10/29 09:09:27;;;;;;;17.02;3.03;;;23.70;93.00;;;;;;6181588;28;20066;-84
2022/10/29 09:13:01;;;;;;;17.70;2.60;;;24.00;92.40;;;;;;6181372;28;20043;-84
2022/10/29 09:16:23;;;;;;;15.95;2.60;;;24.30;91.60;;;;;;6181296;28;20054;-84
2022/10/29 09:19:38;;;;;;;16.05;2.08;;;24.70;90.70;;;;;;6185972;28;20050;-84
2022/10/29 09:22:47;;;;;;;15.25;1.83;;;24.90;89.20;;;;;;6221238;28;20053;-84
2022/10/29 09:25:57;;;;;;;19.50;2.50;;;25.20;87.80;;;;;;6229774;28;20077;-85
2022/10/29 09:29:23;;;;;;;7.72;2.40;;;25.50;86.30;;;;;;6228778;28;20046;-84
2022/10/29 09:32:29;;;;;;;17.67;2.28;;;25.80;85.00;;;;;;6226254;28;20496;-85
2022/10/29 09:35:38;;;;;;;8.07;2.05;;;26.00;83.20;;;;;;6228313;28;20042;-84
2022/10/29 09:38:45;;;;;;;15.90;2.17;;;26.20;82.10;;;;;;6228545;28;20053;-84
2022/10/29 09:41:53;;;;;;;6.35;2.00;;;26.40;81.30;;;;;;6225524;28;20526;-86
2022/10/29 09:44:57;;;;;;;18.17;2.97;;;26.70;80.10;;;;;;6227820;28;20057;-81
2022/10/29 09:48:07;;;;;;;14.63;2.47;;;27.00;79.00;;;;;;6222737;28;20062;-82
2022/10/29 09:51:19;;;;;;;12.18;2.17;;;27.40;77.80;;;;;;6213151;28;20049;-82
2022/10/29 09:54:22;;;;;;;6.88;1.75;;;27.70;76.60;;;;;;6201566;28;20042;-81
2022/10/29 09:57:28;;;;;;;11.75;3.10;;;28.00;75.40;;;;;;6199350;28;20070;-83
2022/10/29 10:00:31;;;;;;;12.95;2.40;;;28.30;74.00;;;;;;6200104;28;20096;-81
2022/10/29 10:03:37;;;;;;;6.13;2.10;;;28.50;72.70;;;;;;6198942;28;20053;-82
2022/10/29 10:07:02;;;;;;;9.52;1.92;;;28.60;71.60;;;;;;6179258;28;20050;-82
2022/10/29 10:10:05;;;;;;;10.23;2.20;;;28.90;70.30;;;;;;6175717;28;20049;-82
2022/10/29 10:13:13;;;;;;;11.65;1.88;;;29.20;68.40;;;;;;6175861;28;20055;-82
2022/10/29 10:16:23;;;;;;;6.85;2.03;;;29.40;67.20;;;;;;6176959;28;20147;-82
2022/10/29 10:19:27;;;;;;;9.60;2.10;;;29.50;66.10;;;;;;6177073;28;20054;-82
2022/10/29 10:22:30;;;;;;;5.40;1.90;;;29.70;65.30;;;;;;6217279;28;20095;-84
2022/10/29 10:25:34;;;;;;;14.13;2.38;;;29.90;64.50;;;;;;6224546;28;20042;-82
2022/10/29 10:28:37;;;;;;;7.47;2.13;;;30.00;63.30;;;;;;6223631;28;20042;-83
2022/10/29 10:31:39;;;;;;;11.13;2.40;;;30.20;62.80;;;;;;6222959;28;20053;-83
2022/10/29 10:34:41;;;;;;;13.05;2.60;;;30.30;62.30;;;;;;6223879;28;20046;-85
2022/10/29 10:37:43;;;;;;;6.88;1.63;;;30.30;60.40;;;;;;6223523;28;20050;-83
2022/10/29 10:40:53;;;;;;;14.50;2.58;;;30.10;60.50;;;;;;6223471;28;20053;-83
2022/10/29 10:44:00;;;;;;;11.13;3.28;;;30.10;60.70;;;;;;6224884;28;20455;-84
2022/10/29 10:47:06;;;;;;;14.65;2.50;;;30.30;60.30;;;;;;6225299;28;20081;-84
2022/10/29 10:50:13;;;;;;;10.80;2.17;;;30.40;59.60;;;;;;6216974;28;20044;-84
2022/10/29 10:53:19;;;;;;;17.35;3.42;;;30.30;59.00;;;;;;6207159;28;20053;-84
2022/10/29 10:56:22;;;;;;;8.55;1.48;;;30.30;58.80;;;;;;6198863;28;20038;-84
2022/10/29 10:59:29;;;;;;;13.35;1.88;;;30.30;58.90;;;;;;6199954;28;20080;-84
2022/10/29 11:02:38;;;;;;;;;;;30.20;58.40;;;;;;6199515;28;20074;-84
2022/10/29 11:05:44;;;;;;;12.70;1.50;;;30.30;59.60;;;;;;6195158;28;19925;-84
2022/10/29 11:08:52;;;;;;;20.23;2.30;;;30.20;58.10;;;;;;6198390;28;20053;-84
2022/10/29 11:12:00;;;;;;;10.13;1.70;;;30.10;58.00;;;;;;6198380;28;20042;-84
2022/10/29 11:15:07;;;;;;;;;;;30.10;58.30;;;;;;6200462;28;20050;-84
2022/10/29 11:18:16;;;;;;;10.77;2.53;;;29.90;59.30;;;;;;6198345;28;19922;-84
2022/10/29 11:21:25;;;;;;;14.32;2.47;;;29.70;59.70;;;;;;6206739;28;20046;-84
2022/10/29 11:24:37;;;;;;;6.93;2.00;;;29.70;60.00;;;;;;6175254;28;20039;-84
2022/10/29 11:27:47;;;;;;;7.15;2.10;;;29.70;60.20;;;;;;6174767;28;20102;-84
2022/10/29 11:30:57;;;;;;;10.05;2.15;;;29.60;59.80;;;;;;6175432;28;20050;-85
2022/10/29 11:34:06;;;;;;;11.38;4.47;;;29.60;60.40;;;;;;6174265;28;20042;-85
2022/10/29 11:37:17;;;;;;;13.60;1.83;;;29.90;60.80;;;;;;6173306;28;20054;-84
2022/10/29 11:40:23;;;;;;;8.95;1.75;;;30.30;60.10;;;;;;6179610;28;20493;-83
2022/10/29 11:43:25;;;;;;;11.05;1.90;;;30.80;59.40;;;;;;6180528;28;20054;-84
2022/10/29 11:46:37;;;;;;;10.82;2.10;;;31.20;58.70;;;;;;6179561;28;20405;-85
2022/10/29 11:49:55;;;;;;;7.20;2.10;;;31.60;57.50;;;;;;6196471;28;20050;-84
2022/10/29 11:53:09;;;;;;;8.90;2.08;;;31.90;56.80;;;;;;6220642;28;20053;-84
2022/10/29 11:56:17;;;;;;;10.52;2.35;;;32.20;55.70;;;;;;6228468;28;20419;-84
2022/10/29 11:59:27;;;;;;;15.30;2.15;;;32.30;55.10;;;;;;6230047;28;20411;-85
2022/10/29 12:02:43;;;;;;;8.05;2.63;;;32.50;54.60;;;;;;6229627;28;20500;-84
2022/10/29 12:05:53;;;;;;;10.75;1.90;;;32.70;54.30;;;;;;6227355;28;20053;-84
2022/10/29 12:09:10;;;;;;;14.80;2.42;;;32.90;53.90;;;;;;6227812;28;20046;-86
2022/10/29 12:12:16;;;;;;;;;;;33.10;54.10;;;;;;6227858;28;20042;-84
2022/10/29 12:15:24;;;;;;;7.47;1.50;;;33.20;54.90;;;;;;6227265;28;19928;-85
2022/10/29 12:18:34;;;;;;;7.25;2.10;;;33.20;54.30;;;;;;6227026;28;20053;-84
2022/10/29 12:21:40;;;;;;;15.13;2.15;;;33.00;54.60;;;;;;6214824;28;20057;-84
2022/10/29 12:25:02;;;;;;;8.52;1.80;;;33.00;53.90;;;;;;6227221;28;20423;-84
2022/10/29 12:28:18;;;;;;;6.80;1.67;;;32.90;54.00;;;;;;6227366;28;20046;-84
2022/10/29 12:31:30;;;;;;;22.95;3.13;;;32.80;53.60;;;;;;6227965;28;20054;-84
2022/10/29 12:34:40;;;;;;;10.80;1.88;;;32.70;53.80;;;;;;6228178;28;20054;-84
2022/10/29 12:37:48;;;;;;;9.70;1.63;;;32.50;54.00;;;;;;6227890;28;20054;-83
2022/10/29 12:40:56;;;;;;;9.20;2.40;;;32.20;54.20;;;;;;6227998;28;20042;-85
2022/10/29 12:44:07;;;;;;;10.43;1.95;;;32.10;54.70;;;;;;6229650;28;20123;-85
2022/10/29 12:47:15;;;;;;;7.97;1.92;;;32.10;54.80;;;;;;6229835;28;20050;-85
2022/10/29 12:50:32;;;;;;;14.10;2.22;;;32.00;54.90;;;;;;6231257;28;20044;-85
2022/10/29 12:53:41;;;;;;;9.38;1.88;;;31.90;54.90;;;;;;6218279;28;20062;-84
2022/10/29 12:56:44;;;;;;;6.05;3.03;;;31.80;54.90;;;;;;6208590;28;20058;-84
2022/10/29 12:59:45;;;;;;;5.03;1.70;;;31.80;55.10;;;;;;6205590;28;20050;-85
2022/10/29 13:02:47;;;;;;;6.22;1.92;;;31.60;54.90;;;;;;6206967;28;20050;-84
2022/10/29 13:05:50;;;;;;;9.75;1.75;;;31.30;55.40;;;;;;6206221;28;20052;-86
2022/10/29 13:08:55;;;;;;;8.48;1.70;;;31.30;56.00;;;;;;6205553;28;20046;-84
2022/10/29 13:11:59;;;;;;;10.25;2.38;;;31.30;55.60;;;;;;6205960;28;20046;-84
2022/10/29 13:15:04;;;;;;;8.82;2.25;;;31.40;55.50;;;;;;6205653;28;20144;-83
2022/10/29 13:18:17;;;;;;;8.57;1.85;;;31.40;55.20;;;;;;6203766;28;20055;-84
2022/10/29 13:21:56;;;;;;;9.13;2.60;;;31.50;55.20;;;;;;6210680;28;20117;-86
2022/10/29 13:25:50;;;;;;;7.55;2.00;;;31.60;55.10;;;;;;6178813;28;20054;-84
2022/10/29 13:28:53;;;;;;;7.30;2.30;;;31.70;55.20;;;;;;6178639;28;20047;-84
2022/10/29 13:31:55;;;;;;;10.20;2.63;;;31.90;55.00;;;;;;6222810;28;20419;-85
2022/10/29 13:34:59;;;;;;;10.57;1.95;;;31.90;54.80;;;;;;6226595;28;20046;-84
2022/10/29 13:38:15;;;;;;;8.77;1.98;;;32.00;54.70;;;;;;6224927;28;20050;-84
2022/10/29 13:41:18;;;;;;;8.80;2.10;;;32.00;54.60;;;;;;6230376;28;20046;-84
2022/10/29 13:44:24;;;;;;;9.70;1.98;;;32.10;54.60;;;;;;6224371;28;20042;-85
2022/10/29 13:47:25;;;;;;;8.82;2.22;;;32.00;54.40;;;;;;6242278;23;20066;-84
2022/10/29 13:50:29;;;;;;;15.25;2.72;;;32.00;54.70;;;;;;6178924;28;20685;-87
2022/10/29 13:53:39;;;;;;;12.77;2.30;;;31.80;54.60;;;;;;6185396;28;20054;-84
2022/10/29 13:56:46;;;;;;;11.43;1.98;;;31.50;54.50;;;;;;6179134;28;20054;-83
2022/10/29 13:59:54;;;;;;;14.45;2.75;;;31.00;55.00;;;;;;6178958;28;20073;-82
2022/10/29 14:02:59;;;;;;;9.15;2.70;;;30.70;55.90;;;;;;6179381;28;20069;-83
2022/10/29 14:06:06;;;;;;;14.10;2.55;;;30.40;56.70;;;;;;6178451;28;20500;-83
2022/10/29 14:09:15;;;;;;;10.83;2.10;;;30.00;57.40;;;;;;6145824;28;20047;-83
2022/10/29 14:12:20;;;;;;;18.35;2.10;;;29.70;58.10;;;;;;6131099;29;20048;-82
2022/10/29 14:15:23;;;;;;;5.25;1.67;;;29.40;58.60;;;;;;6130649;29;20055;-82
2022/10/29 14:18:26;;;;;;;11.93;2.22;;;29.10;59.10;;;;;;6131197;29;20047;-82
2022/10/29 14:21:30;;;;;;;18.65;3.15;;;28.80;59.70;;;;;;6159738;28;20054;-83
2022/10/29 14:24:37;;;;;;;13.32;2.58;;;28.50;60.60;;;;;;6177670;28;20054;-83
2022/10/29 14:27:39;;;;;;;15.02;2.60;;;28.20;61.90;;;;;;6177418;28;20054;-82
2022/10/29 14:30:42;;;;;;;11.88;3.58;;;28.00;62.50;;;;;;6178989;28;20065;-83
2022/10/29 14:33:45;;;;;;;11.50;3.83;;;27.70;63.80;;;;;;6177339;28;20055;-82
2022/10/29 14:36:48;;;;;;;10.52;2.90;;;27.50;64.40;;;;;;6176760;28;20054;-82
2022/10/29 14:39:53;;;;;;;10.13;3.08;;;27.40;65.20;;;;;;6177728;28;20051;-82
2022/10/29 14:42:56;;;;;;;10.02;2.55;;;27.20;66.10;;;;;;6177712;28;20054;-82
2022/10/29 14:46:12;;;;;;;8.52;1.90;;;27.00;66.90;;;;;;6177329;28;20053;-81
2022/10/29 14:49:18;;;;;;;17.70;2.63;;;26.80;67.90;;;;;;6176491;28;20420;-80
2022/10/29 14:52:28;;;;;;;15.40;2.75;;;26.50;68.20;;;;;;6180252;28;20141;-80
2022/10/29 14:55:33;;;;;;;18.02;2.65;;;26.30;69.20;;;;;;6185659;28;20057;-81
2022/10/29 14:58:37;;;;;;;18.77;2.42;;;26.10;70.10;;;;;;6178924;28;20051;-81
2022/10/29 15:01:47;;;;;;;15.90;2.63;;;25.90;70.80;;;;;;6179764;28;20054;-82
2022/10/29 15:04:55;;;;;;;11.38;3.38;;;25.70;71.70;;;;;;6179860;28;20051;-80
2022/10/29 15:08:13;;;;;;;21.48;3.92;;;25.50;72.30;;;;;;6178289;28;20047;-81
2022/10/29 15:11:34;;;;;;;15.95;5.13;;;25.30;73.10;;;;;;6179081;28;20102;-81
2022/10/29 15:14:45;;;;;;;12.80;2.95;;;25.00;73.70;;;;;;6184397;28;20067;-81
2022/10/29 15:17:52;;;;;;;13.48;2.80;;;24.90;74.40;;;;;;6183366;28;20054;-80
2022/10/29 15:20:55;;;;;;;7.03;2.70;;;24.60;75.40;;;;;;6191300;28;20053;-80
2022/10/29 15:24:01;;;;;;;9.20;2.75;;;24.50;76.10;;;;;;6204040;28;20305;-81
2022/10/29 15:27:05;;;;;;;14.45;2.60;;;24.20;76.90;;;;;;6208223;28;20054;-81
2022/10/29 15:30:08;;;;;;;12.07;2.38;;;24.00;77.70;;;;;;6206869;28;20042;-80
2022/10/29 15:33:17;;;;;;;8.77;2.53;;;23.80;78.70;;;;;;6207262;28;20054;-81
2022/10/29 15:36:18;;;;;;;7.93;2.70;;;23.60;79.70;;;;;;6207883;28;20061;-81
2022/10/29 15:39:25;;;;;;;10.20;2.90;;;23.50;80.20;;;;;;6206366;28;20050;-81
2022/10/29 15:42:29;;;;;;;11.18;3.40;;;23.30;81.30;;;;;;6206042;28;20053;-83
2022/10/29 15:45:31;;;;;;;11.45;2.58;;;23.10;81.80;;;;;;6206441;28;20042;-84
2022/10/29 15:48:37;;;;;;;10.93;2.60;;;22.90;82.40;;;;;;6205604;28;20053;-82
2022/10/29 15:51:38;;;;;;;13.10;2.78;;;22.80;83.30;;;;;;6193005;28;20492;-82
2022/10/29 15:54:40;;;;;;;13.93;4.38;;;22.60;83.70;;;;;;6206549;28;20531;-82
2022/10/29 15:57:43;;;;;;;9.05;3.10;;;22.50;84.50;;;;;;6187040;28;20707;-82